Time;durP1;ratioP1;P1;durP2;ratioP2;P2;SDS_P1;SDS_P2;PMS_P1;PMS_P2;Temp;Humidity;BMP_temperature;BMP_pressure;BME280_temperature;BME280_humidity;BME280_pressure;Samples;Min_cycle;Max_cycle;Signal;HPM_P1;HPM_P2
2024/01/17 00:01:15;;;;;;;7.00;3.97;;;21.10;27.10;;;;;;4951204;28;20055;-55
2024/01/17 00:03:42;;;;;;;7.20;4.07;;;21.10;27.00;;;;;;4944514;28;20488;-55
2024/01/17 00:06:10;;;;;;;6.85;4.13;;;21.10;27.00;;;;;;4944950;28;20048;-56
2024/01/17 00:08:38;;;;;;;6.70;4.25;;;21.10;26.90;;;;;;4943682;28;20062;-56
2024/01/17 00:11:05;;;;;;;5.80;4.03;;;21.10;26.90;;;;;;4945612;28;20365;-56
2024/01/17 00:13:34;;;;;;;6.43;4.05;;;21.00;26.80;;;;;;4946524;28;20507;-55
2024/01/17 00:16:01;;;;;;;6.32;3.92;;;21.00;26.80;;;;;;4947821;28;20055;-56
2024/01/17 00:18:29;;;;;;;7.75;4.00;;;21.00;26.80;;;;;;4947827;28;20159;-56
2024/01/17 00:20:57;;;;;;;7.72;4.43;;;21.00;26.80;;;;;;4942714;28;20146;-51
2024/01/17 00:23:24;;;;;;;7.90;4.22;;;20.90;26.80;;;;;;4946838;28;20056;-52
2024/01/17 00:25:51;;;;;;;7.05;4.20;;;20.90;26.80;;;;;;4946569;28;20047;-55
2024/01/17 00:28:19;;;;;;;7.32;4.30;;;20.80;26.70;;;;;;4948228;28;20404;-55
2024/01/17 00:30:46;;;;;;;7.38;4.07;;;20.80;26.70;;;;;;4947937;28;20059;-56
2024/01/17 00:33:13;;;;;;;7.35;4.10;;;20.80;26.70;;;;;;4944426;28;20058;-54
2024/01/17 00:35:42;;;;;;;5.90;4.00;;;20.70;26.70;;;;;;4948130;28;20055;-54
2024/01/17 00:38:09;;;;;;;6.30;4.35;;;20.70;26.70;;;;;;4944253;28;20058;-53
2024/01/17 00:40:37;;;;;;;9.45;4.53;;;20.60;26.70;;;;;;4946860;28;20765;-55
2024/01/17 00:43:04;;;;;;;9.60;4.40;;;20.60;26.70;;;;;;4949264;28;20062;-56
2024/01/17 00:45:31;;;;;;;7.43;4.32;;;20.50;26.70;;;;;;4947234;28;20055;-54
2024/01/17 00:47:59;;;;;;;6.88;4.43;;;20.50;26.70;;;;;;4946636;28;20051;-53
2024/01/17 00:50:26;;;;;;;8.35;4.55;;;20.40;26.70;;;;;;4936585;28;20060;-56
2024/01/17 00:52:54;;;;;;;7.13;4.28;;;20.40;26.70;;;;;;4930701;29;20056;-55
2024/01/17 00:55:22;;;;;;;8.15;4.40;;;20.40;26.80;;;;;;4928245;29;20070;-53
2024/01/17 00:57:49;;;;;;;6.65;4.40;;;20.40;26.90;;;;;;4927997;29;20044;-53
2024/01/17 01:00:16;;;;;;;7.30;4.55;;;20.40;27.00;;;;;;4929879;29;20047;-56
2024/01/17 01:02:44;;;;;;;6.95;4.15;;;20.40;27.00;;;;;;4926534;29;20048;-55
2024/01/17 01:05:12;;;;;;;7.55;4.38;;;20.40;27.10;;;;;;4929485;29;20063;-55
2024/01/17 01:07:39;;;;;;;6.80;4.18;;;20.50;27.20;;;;;;4927839;29;20048;-54
2024/01/17 01:10:08;;;;;;;7.55;4.30;;;20.50;27.20;;;;;;4926413;29;20055;-56
2024/01/17 01:12:36;;;;;;;6.72;4.38;;;20.50;27.20;;;;;;4928741;29;20417;-54
2024/01/17 01:15:03;;;;;;;7.68;4.13;;;20.50;27.20;;;;;;4924867;29;20051;-52
2024/01/17 01:17:30;;;;;;;7.38;4.20;;;20.60;27.30;;;;;;4925675;29;20505;-55
2024/01/17 01:19:58;;;;;;;8.35;4.90;;;20.60;27.30;;;;;;4926260;29;20052;-54
2024/01/17 01:22:25;;;;;;;9.35;4.57;;;20.60;27.30;;;;;;4929340;29;20052;-55
2024/01/17 01:24:52;;;;;;;8.18;4.63;;;20.70;27.30;;;;;;4926199;29;20056;-53
2024/01/17 01:27:20;;;;;;;11.13;4.18;;;20.70;27.30;;;;;;4922532;29;20536;-55
2024/01/17 01:29:48;;;;;;;10.20;4.57;;;20.80;27.20;;;;;;4928002;29;20051;-56
2024/01/17 01:32:15;;;;;;;8.77;4.53;;;20.80;27.10;;;;;;4927411;29;20588;-55
2024/01/17 01:34:42;;;;;;;7.53;4.57;;;20.80;27.10;;;;;;4927270;29;20051;-56
2024/01/17 01:37:09;;;;;;;7.38;4.78;;;20.80;27.00;;;;;;4929929;29;20488;-53
2024/01/17 01:39:36;;;;;;;7.00;4.68;;;20.90;27.00;;;;;;4927703;29;20051;-54
2024/01/17 01:42:04;;;;;;;7.20;4.28;;;20.90;26.90;;;;;;4928092;29;20533;-56
2024/01/17 01:44:33;;;;;;;8.50;4.65;;;20.80;26.80;;;;;;4924965;29;20054;-56
2024/01/17 01:47:01;;;;;;;8.00;4.63;;;20.80;26.80;;;;;;4925857;29;20059;-57
2024/01/17 01:49:28;;;;;;;9.15;4.82;;;20.80;26.70;;;;;;4932288;28;20070;-56
2024/01/17 01:51:55;;;;;;;7.75;4.05;;;20.80;26.70;;;;;;4946201;28;20419;-54
2024/01/17 01:54:24;;;;;;;5.97;4.18;;;20.80;26.70;;;;;;4944136;28;20124;-56
2024/01/17 01:56:54;;;;;;;8.63;4.68;;;20.70;26.60;;;;;;4945326;28;20062;-52
2024/01/17 01:59:22;;;;;;;7.00;4.55;;;20.70;26.60;;;;;;4944018;28;20055;-55
2024/01/17 02:01:52;;;;;;;6.32;4.00;;;20.70;26.60;;;;;;4946089;28;20141;-55
2024/01/17 02:04:19;;;;;;;7.75;4.40;;;20.70;26.50;;;;;;4947475;28;20047;-56
2024/01/17 02:06:47;;;;;;;7.85;4.43;;;20.70;26.50;;;;;;4945687;28;20063;-55
2024/01/17 02:09:15;;;;;;;7.50;4.32;;;20.60;26.50;;;;;;4945357;28;20432;-55
2024/01/17 02:11:42;;;;;;;7.80;4.30;;;20.60;26.50;;;;;;4947880;28;20058;-56
2024/01/17 02:14:10;;;;;;;7.03;4.43;;;20.60;26.50;;;;;;4945144;28;20089;-56
2024/01/17 02:16:38;;;;;;;8.80;4.30;;;20.50;26.50;;;;;;4945529;28;20058;-55
2024/01/17 02:19:10;;;;;;;5.90;3.92;;;20.40;26.50;;;;;;4944144;28;20431;-56
2024/01/17 02:21:37;;;;;;;9.30;4.47;;;20.40;26.50;;;;;;4944550;28;20054;-56
2024/01/17 02:24:20;;;;;;;7.20;4.38;;;20.40;26.50;;;;;;4946475;28;20089;-54
2024/01/17 02:26:48;;;;;;;6.53;4.20;;;20.30;26.40;;;;;;4946349;28;20047;-56
2024/01/17 02:29:15;;;;;;;7.45;4.20;;;20.30;26.50;;;;;;4946893;28;20058;-55
2024/01/17 02:31:44;;;;;;;7.80;4.60;;;20.30;26.50;;;;;;4946222;28;20432;-56
2024/01/17 02:34:12;;;;;;;6.72;4.15;;;20.30;26.60;;;;;;4945788;28;20055;-54
2024/01/17 02:36:39;;;;;;;8.15;4.22;;;20.30;26.70;;;;;;4945080;28;20062;-54
2024/01/17 02:39:06;;;;;;;9.02;4.15;;;20.20;26.70;;;;;;4945866;28;20059;-56
2024/01/17 02:41:35;;;;;;;7.07;4.32;;;20.20;26.80;;;;;;4942778;28;20424;-56
2024/01/17 02:44:02;;;;;;;6.93;4.10;;;20.30;26.90;;;;;;4940293;28;20058;-53
2024/01/17 02:46:29;;;;;;;6.93;4.22;;;20.30;27.00;;;;;;4949100;28;20059;-57
2024/01/17 02:48:57;;;;;;;7.10;3.92;;;20.30;27.00;;;;;;4945504;29;20294;-57
2024/01/17 02:51:24;;;;;;;6.78;4.10;;;20.40;27.00;;;;;;4948103;29;20047;-57
2024/01/17 02:53:51;;;;;;;6.20;3.90;;;20.40;27.10;;;;;;4947372;29;20051;-57
2024/01/17 02:56:19;;;;;;;7.13;4.30;;;20.40;27.10;;;;;;4946616;28;20512;-55
2024/01/17 02:58:47;;;;;;;5.60;4.22;;;20.50;27.10;;;;;;4944622;28;20394;-57
2024/01/17 03:01:15;;;;;;;5.70;3.83;;;20.50;27.10;;;;;;4945430;28;20440;-55
2024/01/17 03:03:42;;;;;;;6.22;4.20;;;20.60;27.10;;;;;;4945103;28;20514;-55
2024/01/17 03:06:09;;;;;;;8.32;4.55;;;20.60;27.00;;;;;;4943779;28;20417;-56
2024/01/17 03:08:36;;;;;;;7.30;4.50;;;20.60;27.10;;;;;;4940453;28;20066;-55
2024/01/17 03:11:04;;;;;;;7.80;4.35;;;20.60;26.90;;;;;;4944672;28;20059;-58
2024/01/17 03:13:31;;;;;;;8.38;4.15;;;20.70;26.90;;;;;;4942986;28;20062;-55
2024/01/17 03:16:00;;;;;;;8.38;5.15;;;20.70;26.80;;;;;;4946169;28;20059;-57
2024/01/17 03:18:27;;;;;;;8.02;4.70;;;20.70;26.80;;;;;;4941726;28;20047;-55
2024/01/17 03:20:54;;;;;;;8.65;4.53;;;20.70;26.70;;;;;;4944757;28;20051;-56
2024/01/17 03:23:21;;;;;;;11.90;4.63;;;20.70;26.60;;;;;;4947199;28;20074;-55
2024/01/17 03:25:49;;;;;;;8.73;4.50;;;20.70;26.60;;;;;;4945516;28;20074;-55
2024/01/17 03:28:16;;;;;;;21.23;5.00;;;20.70;26.50;;;;;;4948975;28;20043;-58
2024/01/17 03:30:44;;;;;;;9.45;5.53;;;20.70;26.30;;;;;;4948331;28;20055;-57
2024/01/17 03:33:12;;;;;;;10.05;5.30;;;20.60;25.90;;;;;;4946538;28;20522;-57
2024/01/17 03:35:40;;;;;;;8.70;4.95;;;20.60;25.70;;;;;;4947879;28;20055;-53
2024/01/17 03:38:06;;;;;;;10.07;5.15;;;20.60;25.70;;;;;;4947109;28;20043;-56
2024/01/17 03:40:33;;;;;;;13.00;5.75;;;20.50;25.70;;;;;;4948599;28;20692;-52
2024/01/17 03:43:01;;;;;;;10.13;4.65;;;20.50;25.90;;;;;;4948224;29;20063;-59
2024/01/17 03:45:29;;;;;;;9.55;4.72;;;20.50;26.00;;;;;;4949710;28;20059;-58
2024/01/17 03:47:57;;;;;;;8.95;5.10;;;20.40;25.90;;;;;;4948842;29;20397;-58
2024/01/17 03:50:26;;;;;;;8.23;4.78;;;20.40;26.00;;;;;;4950249;29;20425;-57
2024/01/17 03:52:53;;;;;;;6.95;4.18;;;20.40;26.00;;;;;;4950968;29;20066;-58
2024/01/17 03:55:20;;;;;;;7.50;4.55;;;20.30;26.00;;;;;;4940894;28;20401;-54
2024/01/17 03:57:47;;;;;;;8.50;4.70;;;20.30;26.00;;;;;;4943572;28;20059;-58
2024/01/17 04:00:16;;;;;;;8.05;4.22;;;20.20;26.00;;;;;;4944116;28;20051;-55
2024/01/17 04:02:43;;;;;;;12.48;4.88;;;20.20;26.00;;;;;;4947196;28;20055;-59
2024/01/17 04:05:10;;;;;;;9.85;4.32;;;20.20;26.10;;;;;;4947871;28;20393;-56
2024/01/17 04:07:39;;;;;;;9.95;4.82;;;20.10;26.10;;;;;;4943738;28;20435;-59
2024/01/17 04:10:08;;;;;;;11.93;4.68;;;20.10;26.40;;;;;;4943225;28;20407;-59
2024/01/17 04:12:36;;;;;;;10.15;4.30;;;20.10;26.50;;;;;;4944477;28;20422;-57
2024/01/17 04:15:03;;;;;;;6.47;3.88;;;20.10;26.60;;;;;;4946679;28;20047;-57
2024/01/17 04:17:31;;;;;;;8.30;3.92;;;20.10;26.60;;;;;;4942502;28;20061;-58
2024/01/17 04:19:58;;;;;;;11.82;4.28;;;20.10;26.80;;;;;;4945599;28;20047;-59
2024/01/17 04:22:25;;;;;;;8.75;4.18;;;20.10;26.80;;;;;;4949325;28;20058;-59
2024/01/17 04:24:54;;;;;;;52.63;31.75;;;20.10;26.80;;;;;;4946195;28;20055;-58
2024/01/17 04:27:21;;;;;;;91.38;50.47;;;20.20;26.50;;;;;;4944299;28;20059;-56
2024/01/17 04:29:48;;;;;;;69.72;39.47;;;20.20;26.30;;;;;;4944553;28;20055;-59
2024/01/17 04:32:16;;;;;;;45.28;27.25;;;20.20;26.40;;;;;;4929900;28;20412;-58
2024/01/17 04:34:43;;;;;;;37.40;20.67;;;20.30;26.60;;;;;;4927605;29;20063;-55
2024/01/17 04:37:10;;;;;;;29.52;16.35;;;20.30;26.70;;;;;;4928595;29;20711;-58
2024/01/17 04:39:38;;;;;;;26.75;15.30;;;20.40;26.80;;;;;;4927985;29;20067;-58
2024/01/17 04:42:07;;;;;;;23.67;13.73;;;20.40;26.80;;;;;;4931104;29;20062;-58
2024/01/17 04:44:35;;;;;;;21.50;12.88;;;20.50;27.20;;;;;;4933403;29;20060;-56
2024/01/17 04:47:02;;;;;;;26.05;11.02;;;20.50;26.90;;;;;;4930879;29;20070;-55
2024/01/17 04:49:30;;;;;;;28.02;10.38;;;20.50;26.50;;;;;;4925321;29;20052;-56
2024/01/17 04:51:57;;;;;;;27.50;9.98;;;20.50;26.50;;;;;;4925829;29;20055;-56
2024/01/17 04:54:26;;;;;;;24.60;9.63;;;20.50;26.20;;;;;;4928911;29;20066;-56
2024/01/17 04:56:54;;;;;;;15.35;8.27;;;20.50;26.30;;;;;;4929396;29;20047;-56
2024/01/17 04:59:23;;;;;;;16.30;8.13;;;20.50;26.40;;;;;;4926343;29;20512;-56
2024/01/17 05:01:50;;;;;;;90.35;49.97;;;20.50;26.50;;;;;;4926910;29;20748;-56
2024/01/17 05:04:18;;;;;;;122.07;67.03;;;20.50;26.40;;;;;;4925233;29;20062;-58
2024/01/17 05:06:46;;;;;;;81.45;44.88;;;20.40;26.00;;;;;;4929099;29;20055;-56
2024/01/17 05:09:17;;;;;;;60.90;31.70;;;20.40;26.10;;;;;;4927318;29;20058;-57
2024/01/17 05:11:44;;;;;;;46.15;25.30;;;20.40;26.10;;;;;;4927296;29;20047;-57
2024/01/17 05:14:14;;;;;;;37.47;21.85;;;20.40;26.30;;;;;;4927794;29;20496;-53
2024/01/17 05:16:43;;;;;;;33.83;18.98;;;20.40;26.20;;;;;;4927452;29;20063;-52
2024/01/17 05:19:10;;;;;;;32.33;18.00;;;20.40;26.30;;;;;;4927570;29;20048;-57
2024/01/17 05:21:37;;;;;;;31.75;17.88;;;20.40;26.30;;;;;;4925440;29;20058;-55
2024/01/17 05:24:05;;;;;;;28.55;16.48;;;20.30;26.30;;;;;;4930346;29;20416;-55
2024/01/17 05:26:32;;;;;;;28.20;14.43;;;20.30;26.40;;;;;;4924785;29;20067;-56
2024/01/17 05:28:59;;;;;;;30.73;15.55;;;20.30;26.40;;;;;;4928336;29;20485;-56
2024/01/17 05:31:27;;;;;;;30.67;14.80;;;20.30;26.50;;;;;;4926980;29;20063;-56
2024/01/17 05:33:55;;;;;;;25.75;13.43;;;20.30;26.50;;;;;;4927984;29;20051;-54
2024/01/17 05:36:22;;;;;;;62.47;30.08;;;20.20;26.40;;;;;;4924394;29;20051;-55
2024/01/17 05:38:50;;;;;;;76.28;38.35;;;20.20;26.10;;;;;;4926727;29;20064;-53
2024/01/17 05:41:17;;;;;;;47.08;27.52;;;20.20;26.00;;;;;;4927343;29;20058;-54
2024/01/17 05:43:44;;;;;;;35.08;20.67;;;20.20;26.10;;;;;;4924693;29;20063;-53
2024/01/17 05:46:11;;;;;;;31.08;18.55;;;20.10;26.20;;;;;;4929155;29;20063;-55
2024/01/17 05:48:39;;;;;;;26.95;15.32;;;20.10;26.30;;;;;;4925904;29;20056;-54
2024/01/17 05:51:08;;;;;;;26.33;14.73;;;20.20;26.40;;;;;;4929204;29;20519;-55
2024/01/17 05:53:35;;;;;;;26.65;14.05;;;20.20;26.50;;;;;;4927748;29;20055;-52
2024/01/17 05:56:03;;;;;;;23.02;13.50;;;20.20;26.50;;;;;;4929844;29;20051;-56
2024/01/17 05:58:30;;;;;;;23.70;11.90;;;20.20;26.60;;;;;;4925238;29;20052;-56
2024/01/17 06:00:57;;;;;;;20.80;10.35;;;20.20;26.70;;;;;;4921061;29;20731;-52
2024/01/17 06:03:24;;;;;;;19.35;10.18;;;20.30;26.80;;;;;;4924568;29;20048;-54
2024/01/17 06:05:52;;;;;;;19.85;9.93;;;20.30;26.70;;;;;;4924691;29;20059;-56
2024/01/17 06:08:21;;;;;;;126.40;68.57;;;20.30;26.70;;;;;;4931455;29;20411;-55
2024/01/17 06:10:48;;;;;;;78.53;47.28;;;20.40;26.50;;;;;;4932087;29;20052;-55
2024/01/17 06:13:16;;;;;;;60.20;31.27;;;20.40;26.50;;;;;;4928690;29;20133;-52
2024/01/17 06:15:43;;;;;;;39.63;22.52;;;20.40;26.60;;;;;;4924660;29;20492;-55
2024/01/17 06:18:12;;;;;;;34.10;19.95;;;20.50;26.70;;;;;;4930695;29;20481;-52
2024/01/17 06:20:39;;;;;;;27.20;16.98;;;20.50;26.70;;;;;;4928628;29;20385;-56
2024/01/17 06:23:09;;;;;;;35.97;15.07;;;20.60;26.70;;;;;;4923115;29;20060;-56
2024/01/17 06:25:38;;;;;;;27.77;15.13;;;20.60;26.80;;;;;;4928454;29;20056;-57
2024/01/17 06:28:05;;;;;;;31.77;13.43;;;20.60;26.80;;;;;;4930455;29;20055;-57
2024/01/17 06:30:33;;;;;;;19.92;12.25;;;20.60;26.70;;;;;;4928258;29;20133;-57
2024/01/17 06:33:00;;;;;;;24.70;12.02;;;20.70;26.70;;;;;;4925507;29;20074;-56
2024/01/17 06:35:27;;;;;;;25.75;11.90;;;20.70;26.70;;;;;;4932882;29;20535;-56
2024/01/17 06:37:54;;;;;;;18.10;11.07;;;20.70;26.70;;;;;;4928317;29;20501;-56
2024/01/17 06:40:22;;;;;;;17.25;9.85;;;20.60;26.60;;;;;;4931022;29;20052;-55
2024/01/17 06:42:50;;;;;;;18.25;9.88;;;20.70;26.60;;;;;;4927286;29;20063;-57
2024/01/17 06:45:17;;;;;;;19.23;9.80;;;20.70;26.60;;;;;;4924197;29;20523;-57
2024/01/17 06:47:45;;;;;;;12.93;8.48;;;20.60;26.50;;;;;;4927652;29;20055;-57
2024/01/17 06:50:13;;;;;;;17.17;8.68;;;20.70;26.50;;;;;;4929524;29;20056;-57
2024/01/17 06:52:41;;;;;;;20.90;8.45;;;20.60;26.60;;;;;;4925015;29;20559;-53
2024/01/17 06:55:08;;;;;;;19.02;7.60;;;20.60;26.60;;;;;;4922781;29;20056;-61
2024/01/17 06:57:36;;;;;;;14.57;8.00;;;20.60;26.70;;;;;;4925364;29;20056;-60
2024/01/17 07:00:07;;;;;;;13.23;6.97;;;20.60;26.60;;;;;;4926941;29;20058;-61
2024/01/17 07:02:34;;;;;;;13.52;6.13;;;20.60;26.50;;;;;;4929511;29;20058;-61
2024/01/17 07:05:01;;;;;;;10.75;6.55;;;20.50;26.40;;;;;;4927957;29;20066;-59
2024/01/17 07:07:29;;;;;;;15.43;7.00;;;20.50;26.40;;;;;;4927834;29;20052;-59
2024/01/17 07:09:56;;;;;;;12.23;6.32;;;20.40;26.50;;;;;;4924251;29;20060;-60
2024/01/17 07:12:23;;;;;;;18.13;6.43;;;20.40;26.60;;;;;;4929936;29;20481;-61
2024/01/17 07:14:54;;;;;;;14.75;5.82;;;20.40;26.60;;;;;;4928629;29;20075;-57
2024/01/17 07:17:22;;;;;;;13.63;6.20;;;20.40;26.60;;;;;;4930151;29;20059;-56
2024/01/17 07:19:49;;;;;;;13.05;5.55;;;20.40;26.80;;;;;;4929167;29;20047;-59
2024/01/17 07:22:17;;;;;;;22.80;5.20;;;20.40;26.80;;;;;;4931991;29;20503;-59
2024/01/17 07:24:45;;;;;;;11.82;5.25;;;20.40;27.00;;;;;;4924909;29;20044;-58
2024/01/17 07:27:12;;;;;;;13.30;4.88;;;20.40;27.00;;;;;;4928557;29;20122;-58
2024/01/17 07:29:40;;;;;;;14.63;5.53;;;20.40;27.00;;;;;;4924771;29;20056;-57
2024/01/17 07:32:07;;;;;;;12.98;5.10;;;20.50;27.00;;;;;;4929734;29;20055;-59
2024/01/17 07:34:36;;;;;;;13.73;5.45;;;20.50;26.80;;;;;;4929941;29;20055;-57
2024/01/17 07:37:04;;;;;;;11.52;5.03;;;20.50;26.80;;;;;;4925183;29;20428;-57
2024/01/17 07:39:31;;;;;;;8.05;4.65;;;20.60;27.00;;;;;;4930490;29;20063;-58
2024/01/17 07:41:59;;;;;;;15.57;5.03;;;20.60;27.00;;;;;;4925245;29;20052;-56
2024/01/17 07:44:29;;;;;;;13.98;5.10;;;20.60;27.10;;;;;;4931347;29;20063;-58
2024/01/17 07:46:57;;;;;;;18.33;5.00;;;20.60;27.10;;;;;;4926336;29;20067;-57
2024/01/17 07:49:24;;;;;;;16.88;7.03;;;20.60;26.80;;;;;;4924803;29;20067;-58
2024/01/17 07:51:53;;;;;;;71.88;41.85;;;20.70;26.80;;;;;;4929127;29;20058;-57
2024/01/17 07:54:20;;;;;;;55.78;28.95;;;20.70;26.60;;;;;;4931570;29;20060;-59
2024/01/17 07:56:49;;;;;;;36.05;19.45;;;20.70;26.80;;;;;;4927587;29;20067;-60
2024/01/17 07:59:16;;;;;;;27.27;15.57;;;20.80;27.10;;;;;;4925982;29;20047;-61
2024/01/17 08:01:44;;;;;;;34.20;15.20;;;20.80;27.30;;;;;;4930208;29;20546;-61
2024/01/17 08:04:11;;;;;;;28.50;13.50;;;20.90;27.20;;;;;;4927077;29;20055;-62
2024/01/17 08:06:39;;;;;;;20.10;11.32;;;20.90;27.00;;;;;;4924447;29;20066;-61
2024/01/17 08:09:20;;;;;;;27.90;10.65;;;20.90;26.90;;;;;;4921243;29;20056;-61
2024/01/17 08:11:48;;;;;;;21.25;9.70;;;20.90;26.80;;;;;;4929505;29;20083;-61
2024/01/17 08:14:15;;;;;;;22.45;9.10;;;20.90;26.80;;;;;;4923387;29;20055;-62
2024/01/17 08:16:44;;;;;;;24.20;9.23;;;21.00;27.00;;;;;;4925466;29;20055;-62
2024/01/17 08:19:13;;;;;;;23.65;8.40;;;21.00;26.90;;;;;;4927075;29;20063;-61
2024/01/17 08:21:43;;;;;;;24.77;8.23;;;21.00;26.70;;;;;;4924669;29;20056;-60
2024/01/17 08:24:14;;;;;;;18.30;8.10;;;21.00;26.50;;;;;;4924596;29;20064;-59
2024/01/17 08:26:44;;;;;;;15.13;8.27;;;21.00;26.50;;;;;;4930370;29;20750;-66
2024/01/17 08:29:16;;;;;;;27.90;10.85;;;21.00;26.60;;;;;;4928003;29;20448;-67
2024/01/17 08:31:45;;;;;;;23.58;11.02;;;21.00;26.60;;;;;;4929021;29;20043;-64
2024/01/17 08:34:15;;;;;;;22.58;10.60;;;21.00;26.60;;;;;;4925032;29;20056;-65
2024/01/17 08:36:45;;;;;;;18.95;9.68;;;21.10;26.60;;;;;;4926616;29;20051;-59
2024/01/17 08:39:14;;;;;;;25.38;9.23;;;21.00;26.60;;;;;;4930685;29;20518;-60
2024/01/17 08:41:45;;;;;;;15.88;8.23;;;21.00;26.60;;;;;;4946707;29;20058;-61
2024/01/17 08:44:13;;;;;;;14.40;7.38;;;21.00;26.60;;;;;;4932218;29;20066;-60
2024/01/17 08:46:45;;;;;;;14.25;8.02;;;21.00;26.50;;;;;;4934285;29;20060;-60
2024/01/17 08:49:12;;;;;;;14.63;7.57;;;20.90;26.50;;;;;;4927105;29;20059;-61
2024/01/17 08:51:43;;;;;;;10.50;7.07;;;20.90;26.50;;;;;;4928955;29;20408;-62
2024/01/17 08:54:14;;;;;;;13.35;7.40;;;20.90;26.50;;;;;;4927455;29;20063;-61
2024/01/17 08:56:43;;;;;;;10.95;6.53;;;20.80;26.50;;;;;;4927094;29;20055;-60
2024/01/17 08:59:12;;;;;;;13.65;6.90;;;20.80;26.40;;;;;;4927245;29;20399;-60
2024/01/17 09:01:39;;;;;;;10.50;6.00;;;20.80;26.50;;;;;;4927679;29;20060;-60
2024/01/17 09:04:07;;;;;;;10.82;6.40;;;20.70;26.50;;;;;;4928425;29;20062;-60
2024/01/17 09:06:34;;;;;;;9.35;6.10;;;20.70;26.50;;;;;;4925181;29;20059;-61
2024/01/17 09:09:03;;;;;;;7.55;5.38;;;20.70;26.60;;;;;;4927240;29;20059;-60
2024/01/17 09:11:32;;;;;;;10.43;5.93;;;20.70;26.70;;;;;;4925621;29;20062;-61
2024/01/17 09:14:00;;;;;;;9.50;6.18;;;20.70;26.80;;;;;;4927436;29;20062;-60
2024/01/17 09:16:27;;;;;;;7.72;4.88;;;20.70;26.80;;;;;;4926585;29;20399;-61
2024/01/17 09:18:55;;;;;;;9.45;5.25;;;20.70;26.90;;;;;;4928494;29;20063;-60
2024/01/17 09:21:22;;;;;;;8.23;5.47;;;20.70;26.90;;;;;;4925915;29;20473;-63
2024/01/17 09:23:49;;;;;;;8.18;5.28;;;20.80;27.00;;;;;;4926047;29;20054;-62
2024/01/17 09:26:17;;;;;;;8.80;5.07;;;20.80;27.00;;;;;;4927263;29;20058;-60
2024/01/17 09:28:46;;;;;;;9.35;5.15;;;20.80;27.10;;;;;;4927685;29;20075;-60
2024/01/17 09:31:14;;;;;;;8.13;4.82;;;20.90;27.20;;;;;;4925366;29;20062;-61
2024/01/17 09:33:41;;;;;;;8.15;4.43;;;20.90;27.10;;;;;;4926877;29;20320;-61
2024/01/17 09:36:09;;;;;;;8.00;4.95;;;21.00;27.20;;;;;;4924799;29;20063;-60
2024/01/17 09:38:36;;;;;;;10.50;4.70;;;21.00;27.20;;;;;;4928872;29;20603;-60
2024/01/17 09:41:04;;;;;;;8.23;4.80;;;21.00;27.20;;;;;;4926737;29;20404;-59
2024/01/17 09:43:32;;;;;;;8.05;4.22;;;21.10;27.20;;;;;;4927209;29;20059;-60
2024/01/17 09:46:02;;;;;;;8.70;4.75;;;21.10;27.20;;;;;;4927857;29;20056;-60
2024/01/17 09:48:30;;;;;;;7.60;4.22;;;21.20;27.20;;;;;;4931166;29;20048;-60
2024/01/17 09:50:58;;;;;;;7.88;4.60;;;21.20;27.10;;;;;;4929054;29;20059;-60
2024/01/17 09:53:29;;;;;;;7.60;4.40;;;21.20;27.10;;;;;;4925898;29;20060;-60
2024/01/17 09:55:58;;;;;;;6.72;4.35;;;21.20;27.00;;;;;;4927710;29;20062;-60
2024/01/17 09:58:28;;;;;;;7.65;4.25;;;21.20;27.00;;;;;;4930635;29;20052;-59
2024/01/17 10:00:57;;;;;;;7.22;4.53;;;21.20;26.90;;;;;;4927105;29;20054;-59
2024/01/17 10:03:29;;;;;;;6.57;4.05;;;21.20;26.90;;;;;;4918489;29;20055;-59
2024/01/17 10:05:57;;;;;;;10.07;4.30;;;21.20;26.90;;;;;;4926576;29;20056;-59
2024/01/17 10:08:25;;;;;;;5.28;4.03;;;21.20;27.00;;;;;;4923164;29;20063;-61
2024/01/17 10:10:53;;;;;;;8.07;4.80;;;21.20;26.90;;;;;;4926645;29;20048;-59
2024/01/17 10:13:20;;;;;;;8.20;4.60;;;21.20;26.90;;;;;;4927643;29;20052;-60
2024/01/17 10:15:47;;;;;;;5.93;3.90;;;21.20;26.80;;;;;;4925301;29;20055;-59
2024/01/17 10:18:15;;;;;;;5.65;3.90;;;21.20;26.80;;;;;;4926911;29;20066;-59
2024/01/17 10:20:44;;;;;;;6.82;4.30;;;21.10;26.80;;;;;;4926479;29;20064;-60
2024/01/17 10:23:13;;;;;;;13.35;4.43;;;21.10;26.80;;;;;;4925431;29;20062;-61
2024/01/17 10:25:41;;;;;;;7.35;4.47;;;21.10;26.80;;;;;;4921603;29;20059;-59
2024/01/17 10:28:09;;;;;;;6.70;4.47;;;21.10;26.80;;;;;;4925519;29;20055;-61
2024/01/17 10:30:38;;;;;;;7.28;4.57;;;21.00;26.80;;;;;;4923617;29;20051;-60
2024/01/17 10:33:08;;;;;;;5.45;3.92;;;21.00;26.80;;;;;;4931698;29;20416;-61
2024/01/17 10:35:36;;;;;;;6.68;4.60;;;21.00;26.90;;;;;;4931343;29;20371;-62
2024/01/17 10:38:05;;;;;;;7.80;4.70;;;21.00;26.90;;;;;;4930551;29;20060;-61
2024/01/17 10:40:32;;;;;;;6.63;4.20;;;21.00;27.00;;;;;;4931316;29;20496;-62
2024/01/17 10:43:09;;;;;;;8.10;4.50;;;21.00;27.00;;;;;;4934295;29;20058;-60
2024/01/17 10:45:37;;;;;;;6.78;4.30;;;21.00;27.10;;;;;;4928166;29;20927;-59
2024/01/17 10:48:05;;;;;;;6.32;3.78;;;21.00;27.10;;;;;;4928370;29;20717;-61
2024/01/17 10:50:33;;;;;;;7.35;4.18;;;21.00;27.10;;;;;;4927045;29;20413;-62
2024/01/17 10:53:05;;;;;;;7.80;4.43;;;21.00;27.10;;;;;;4931366;29;20047;-64
2024/01/17 10:55:36;;;;;;;5.13;3.95;;;21.00;27.10;;;;;;4931943;29;20063;-61
2024/01/17 10:58:10;;;;;;;7.93;3.80;;;21.00;27.10;;;;;;4930295;29;20055;-63
2024/01/17 11:00:40;;;;;;;5.43;3.75;;;21.10;27.10;;;;;;4927191;29;20059;-61
2024/01/17 11:03:10;;;;;;;8.10;4.32;;;21.10;27.10;;;;;;4929971;29;20055;-61
2024/01/17 11:05:46;;;;;;;5.55;4.00;;;21.10;27.10;;;;;;4925678;29;20052;-65
2024/01/17 11:08:15;;;;;;;5.63;3.78;;;21.10;27.10;;;;;;4927045;29;20397;-61
2024/01/17 11:10:45;;;;;;;8.00;4.47;;;21.10;27.10;;;;;;4928689;29;20424;-64
2024/01/17 11:13:14;;;;;;;7.20;4.10;;;21.10;27.10;;;;;;4918461;29;20063;-65
2024/01/17 11:15:42;;;;;;;10.27;4.25;;;21.00;27.10;;;;;;4927444;29;20455;-63
2024/01/17 11:18:11;;;;;;;4.82;3.75;;;21.10;27.10;;;;;;4926856;29;20056;-65
2024/01/17 11:20:40;;;;;;;6.20;4.15;;;21.10;27.10;;;;;;4928025;29;20055;-62
2024/01/17 11:23:09;;;;;;;8.90;4.85;;;21.00;27.00;;;;;;4928743;29;20052;-64
2024/01/17 11:25:45;;;;;;;6.50;4.15;;;21.00;27.00;;;;;;4924706;29;20618;-65
2024/01/17 11:28:24;;;;;;;6.18;4.35;;;21.00;27.00;;;;;;4925630;29;20059;-65
2024/01/17 11:31:09;;;;;;;7.07;4.65;;;21.00;27.00;;;;;;4928792;29;20062;-65
2024/01/17 11:33:38;;;;;;;6.18;4.10;;;20.90;26.90;;;;;;4924487;29;20075;-64
2024/01/17 11:36:06;;;;;;;5.18;3.72;;;20.90;26.90;;;;;;4929533;29;20054;-63
2024/01/17 11:38:34;;;;;;;7.10;4.63;;;20.90;27.00;;;;;;4929480;29;20062;-64
2024/01/17 11:41:06;;;;;;;7.72;4.40;;;20.80;27.00;;;;;;4923945;29;20500;-58
2024/01/17 11:43:37;;;;;;;6.20;4.03;;;20.80;27.10;;;;;;4923222;29;20060;-63
2024/01/17 11:46:05;;;;;;;7.63;4.57;;;20.80;27.10;;;;;;4928599;29;20062;-63
2024/01/17 11:48:34;;;;;;;8.18;4.60;;;20.70;27.10;;;;;;4927990;29;20063;-63
2024/01/17 11:51:05;;;;;;;7.68;4.32;;;20.70;27.10;;;;;;4931084;29;20059;-62
2024/01/17 11:53:35;;;;;;;6.97;4.35;;;20.70;27.20;;;;;;4929312;29;20062;-63
2024/01/17 11:56:05;;;;;;;7.38;4.38;;;20.60;27.20;;;;;;4926120;29;20520;-64
2024/01/17 11:58:42;;;;;;;7.50;3.95;;;20.70;27.30;;;;;;4929857;29;20417;-61
2024/01/17 12:01:12;;;;;;;6.80;3.85;;;20.70;27.40;;;;;;4926654;29;20066;-60
2024/01/17 12:03:39;;;;;;;12.32;4.63;;;20.70;27.50;;;;;;4929747;29;20059;-63
2024/01/17 12:06:09;;;;;;;6.28;3.72;;;20.70;27.50;;;;;;4930645;29;20060;-63
2024/01/17 12:08:37;;;;;;;8.38;4.10;;;20.80;27.60;;;;;;4922700;29;20583;-58
2024/01/17 12:11:07;;;;;;;7.03;4.18;;;20.80;27.60;;;;;;4926101;29;20063;-63
2024/01/17 12:13:37;;;;;;;9.98;3.88;;;20.90;27.60;;;;;;4926533;29;20059;-63
2024/01/17 12:16:05;;;;;;;7.05;4.13;;;20.90;27.60;;;;;;4925718;29;20058;-62
2024/01/17 12:18:34;;;;;;;6.55;3.90;;;20.90;27.50;;;;;;4928080;29;20063;-62
2024/01/17 12:21:02;;;;;;;7.43;3.47;;;21.00;27.60;;;;;;4931293;29;20052;-63
2024/01/17 12:23:31;;;;;;;6.55;3.75;;;21.00;27.60;;;;;;4927152;29;20043;-63
2024/01/17 12:25:59;;;;;;;6.07;3.75;;;21.00;27.60;;;;;;4929067;29;20078;-64
2024/01/17 12:28:29;;;;;;;5.63;3.65;;;21.10;27.60;;;;;;4930812;29;20052;-62
2024/01/17 12:31:02;;;;;;;6.43;4.00;;;21.10;27.60;;;;;;4927154;29;20066;-62
2024/01/17 12:33:32;;;;;;;5.68;3.70;;;21.20;27.60;;;;;;4926517;29;20068;-62
2024/01/17 12:36:01;;;;;;;6.35;3.50;;;21.20;27.60;;;;;;4927177;29;20047;-59
2024/01/17 12:38:29;;;;;;;5.75;3.70;;;21.30;27.70;;;;;;4926180;29;20051;-59
2024/01/17 12:40:58;;;;;;;6.53;3.70;;;21.30;27.70;;;;;;4923392;29;20435;-61
2024/01/17 12:43:29;;;;;;;10.02;4.07;;;21.30;27.70;;;;;;4928128;29;20059;-65
2024/01/17 12:45:57;;;;;;;6.25;4.22;;;21.30;27.60;;;;;;4925154;29;20055;-65